Time;durP1;ratioP1;P1;durP2;ratioP2;P2;SDS_P1;SDS_P2;PMS_P1;PMS_P2;Temp;Humidity;BMP_temperature;BMP_pressure;BME280_temperature;BME280_humidity;BME280_pressure;Samples;Min_cycle;Max_cycle;Signal;HPM_P1;HPM_P2
2022/07/12 00:00:54;;;;;;;3.03;2.60;;;;;;;17.42;100.00;100890.19;5020063;28;20668;-74
2022/07/12 00:03:20;;;;;;;3.10;2.80;;;;;;;17.40;100.00;100887.59;5023440;28;20630;-74
2022/07/12 00:05:45;;;;;;;2.70;2.50;;;;;;;17.40;100.00;100890.19;5006926;28;20175;-75
2022/07/12 00:08:10;;;;;;;3.00;2.80;;;;;;;17.41;100.00;100893.69;5021798;28;20203;-75
2022/07/12 00:10:36;;;;;;;3.73;2.40;;;;;;;17.40;100.00;100895.44;5023671;28;20192;-75
2022/07/12 00:13:03;;;;;;;2.50;2.30;;;;;;;17.36;100.00;100892.06;5010279;28;20199;-73
2022/07/12 00:15:28;;;;;;;2.47;2.27;;;;;;;17.37;100.00;100891.16;5010967;28;20210;-73
2022/07/12 00:17:53;;;;;;;2.93;2.67;;;;;;;17.40;100.00;100894.59;5028674;28;20208;-74
2022/07/12 00:20:19;;;;;;;2.83;2.63;;;;;;;17.41;100.00;100896.31;5028112;28;20179;-73
2022/07/12 00:22:46;;;;;;;2.57;2.37;;;;;;;17.41;100.00;100891.06;5024367;28;20204;-73
2022/07/12 00:25:12;;;;;;;2.70;2.47;;;;;;;17.41;100.00;100901.53;5028237;28;20198;-74
2022/07/12 00:27:37;;;;;;;3.13;2.43;;;;;;;17.44;100.00;100899.69;5024445;28;20199;-73
2022/07/12 00:30:05;;;;;;;2.50;2.23;;;;;;;17.44;100.00;100898.84;5005576;28;20176;-73
2022/07/12 00:32:30;;;;;;;2.80;2.60;;;;;;;17.46;100.00;100899.66;5028444;28;20234;-73
2022/07/12 00:34:56;;;;;;;2.40;2.30;;;;;;;17.45;100.00;100898.78;5028434;28;20283;-74
2022/07/12 00:37:21;;;;;;;2.87;2.50;;;;;;;17.50;100.00;100901.28;5028761;28;20214;-74
2022/07/12 00:39:46;;;;;;;2.87;2.67;;;;;;;17.46;100.00;100902.28;5028694;28;20659;-74
2022/07/12 00:42:12;;;;;;;2.73;2.20;;;;;;;17.45;100.00;100900.56;5026042;28;20652;-75
2022/07/12 00:44:37;;;;;;;3.03;2.83;;;;;;;17.42;100.00;100901.50;5028557;28;20185;-75
2022/07/12 00:47:04;;;;;;;2.40;2.20;;;;;;;17.39;100.00;100900.72;5024947;28;20755;-73
2022/07/12 00:49:30;;;;;;;2.63;2.43;;;;;;;17.35;100.00;100897.34;5026691;28;20180;-73
2022/07/12 00:51:56;;;;;;;2.50;2.30;;;;;;;17.36;100.00;100899.91;5010709;28;20569;-76
2022/07/12 00:54:22;;;;;;;2.63;2.43;;;;;;;17.33;100.00;100896.53;5027284;28;20194;-74
2022/07/12 00:56:48;;;;;;;2.77;2.50;;;;;;;17.35;100.00;100905.19;5024716;28;20285;-74
2022/07/12 00:59:13;;;;;;;3.17;2.40;;;;;;;17.33;100.00;100902.59;5025767;28;20219;-74
2022/07/12 01:01:41;;;;;;;2.93;2.63;;;;;;;17.31;100.00;100899.19;5022525;28;20562;-72
2022/07/12 01:04:06;;;;;;;2.80;2.57;;;;;;;17.33;100.00;100899.97;5023029;28;20718;-74
2022/07/12 01:06:32;;;;;;;2.90;2.70;;;;;;;17.30;100.00;100892.25;5027168;28;20195;-74
2022/07/12 01:09:01;;;;;;;2.33;2.13;;;;;;;17.26;100.00;100900.19;5022435;28;20180;-72
2022/07/12 01:11:27;;;;;;;2.57;2.37;;;;;;;17.21;100.00;100909.03;5027291;28;20183;-75
2022/07/12 01:13:52;;;;;;;2.90;2.70;;;;;;;17.20;100.00;100901.22;5024938;28;20197;-72
2022/07/12 01:16:19;;;;;;;2.60;2.40;;;;;;;17.18;100.00;100903.00;4998110;28;20254;-73
2022/07/12 01:18:45;;;;;;;2.60;2.40;;;;;;;17.14;100.00;100899.63;5004100;28;20360;-72
2022/07/12 01:21:15;;;;;;;2.70;2.43;;;;;;;17.12;100.00;100904.03;5022488;28;20728;-74
2022/07/12 01:23:41;;;;;;;2.33;2.03;;;;;;;17.12;100.00;100908.41;5021469;28;20172;-73
2022/07/12 01:26:07;;;;;;;2.60;2.30;;;;;;;17.08;100.00;100905.03;5018598;28;20204;-74
2022/07/12 01:28:32;;;;;;;2.50;2.30;;;;;;;17.10;100.00;100903.22;5023730;28;20186;-73
2022/07/12 01:30:59;;;;;;;2.50;2.30;;;;;;;17.08;100.00;100899.81;5003967;28;20187;-76
2022/07/12 01:33:26;;;;;;;2.60;2.40;;;;;;;17.08;100.00;100891.97;5005841;28;20201;-73
2022/07/12 01:35:51;;;;;;;2.10;2.00;;;;;;;17.09;100.00;100892.81;5025442;28;20203;-73
2022/07/12 01:38:17;;;;;;;2.70;2.50;;;;;;;17.09;100.00;100891.06;5023723;28;20176;-74
2022/07/12 01:40:42;;;;;;;2.20;2.00;;;;;;;17.09;100.00;100901.53;5019122;28;20187;-74
2022/07/12 01:43:08;;;;;;;2.17;1.97;;;;;;;17.06;100.00;100897.22;5003245;28;20184;-73
2022/07/12 01:45:33;;;;;;;2.07;1.97;;;;;;;17.04;100.00;100900.78;5003174;28;20189;-76
2022/07/12 01:47:58;;;;;;;2.60;1.97;;;;;;;17.05;100.00;100890.25;5020899;28;20202;-75
2022/07/12 01:50:24;;;;;;;2.23;2.13;;;;;;;17.05;100.00;100895.50;5019047;28;20184;-74
2022/07/12 01:52:51;;;;;;;2.27;2.10;;;;;;;17.10;100.00;100903.22;5003039;28;20184;-72
2022/07/12 01:55:17;;;;;;;1.87;1.77;;;;;;;17.14;100.00;100902.25;5022457;28;20298;-75
2022/07/12 01:57:43;;;;;;;2.20;2.10;;;;;;;17.13;100.00;100892.69;5021293;28;20299;-74
2022/07/12 02:00:09;;;;;;;2.37;2.17;;;;;;;17.14;100.00;100893.56;5019283;28;20191;-75
2022/07/12 02:02:35;;;;;;;2.30;2.10;;;;;;;17.14;100.00;100893.56;5003987;28;20551;-74
2022/07/12 02:05:02;;;;;;;2.30;2.20;;;;;;;17.10;100.00;100903.22;5004514;28;20191;-74
2022/07/12 02:07:27;;;;;;;2.30;2.20;;;;;;;17.09;100.00;100896.28;5006602;28;20209;-73
2022/07/12 02:09:53;;;;;;;2.40;2.20;;;;;;;17.06;100.00;100907.66;5025321;28;20184;-73
2022/07/12 02:12:19;;;;;;;2.40;2.17;;;;;;;17.03;100.00;100907.75;5000417;28;20179;-74
2022/07/12 02:14:44;;;;;;;4.17;2.30;;;;;;;17.00;100.00;100910.47;5003827;28;20222;-75
2022/07/12 02:17:10;;;;;;;2.80;2.30;;;;;;;16.96;100.00;100907.94;5018628;28;20272;-73
2022/07/12 02:19:36;;;;;;;2.47;2.30;;;;;;;16.91;100.00;100902.81;5023255;28;20289;-74
2022/07/12 02:22:02;;;;;;;2.80;2.60;;;;;;;16.89;100.00;100904.59;5021498;28;20545;-74
2022/07/12 02:24:27;;;;;;;3.43;2.30;;;;;;;16.86;100.00;100907.31;5008298;28;20543;-73
2022/07/12 02:26:53;;;;;;;2.50;2.40;;;;;;;16.84;100.00;100909.09;5020863;28;20208;-74
2022/07/12 02:29:18;;;;;;;2.43;2.10;;;;;;;16.80;100.00;100905.69;5005469;28;20273;-73
2022/07/12 02:31:44;;;;;;;2.50;2.23;;;;;;;16.76;100.00;100911.91;5016138;28;20184;-74
2022/07/12 02:34:09;;;;;;;2.70;2.50;;;;;;;16.71;100.00;100908.53;5004151;28;20184;-75
2022/07/12 02:36:35;;;;;;;2.70;2.47;;;;;;;16.59;100.00;100907.06;5020774;28;20218;-73
2022/07/12 02:39:03;;;;;;;2.90;2.30;;;;;;;16.51;100.00;100904.66;5004766;28;20191;-74
2022/07/12 02:41:29;;;;;;;2.53;2.33;;;;;;;16.42;100.00;100908.31;5002706;28;20222;-75
2022/07/12 02:43:55;;;;;;;2.93;2.73;;;;;;;16.36;100.00;100898.03;5023576;28;20685;-73
2022/07/12 02:46:20;;;;;;;3.00;2.70;;;;;;;16.32;100.00;100906.84;5026363;28;20666;-75
2022/07/12 02:48:46;;;;;;;3.43;2.60;;;;;;;16.26;100.00;100907.00;5027751;28;20179;-75
2022/07/12 02:51:11;;;;;;;2.80;2.60;;;;;;;16.19;100.00;100908.00;5024807;28;20198;-73
2022/07/12 02:53:37;;;;;;;2.80;2.60;;;;;;;16.13;100.00;100915.06;5025502;28;20188;-74
2022/07/12 02:56:03;;;;;;;2.67;2.50;;;;;;;16.09;100.00;100920.41;5025368;28;20241;-72
2022/07/12 02:58:28;;;;;;;2.93;2.73;;;;;;;16.04;100.00;100923.13;5007488;28;20191;-72
2022/07/12 03:00:55;;;;;;;2.73;2.53;;;;;;;15.98;100.00;100920.63;5007418;28;20643;-74
2022/07/12 03:03:20;;;;;;;3.13;2.90;;;;;;;15.96;100.00;100928.50;5023075;28;20689;-74
2022/07/12 03:05:46;;;;;;;3.20;3.00;;;;;;;15.92;100.00;100929.44;5021266;28;20184;-73
2022/07/12 03:08:12;;;;;;;3.00;2.70;;;;;;;15.89;100.00;100921.69;5022820;28;20682;-73
2022/07/12 03:10:38;;;;;;;3.50;3.00;;;;;;;15.88;100.00;100922.59;5021506;28;20180;-74
2022/07/12 03:13:04;;;;;;;3.00;2.70;;;;;;;15.81;100.00;100929.63;5028289;28;20191;-73
2022/07/12 03:15:30;;;;;;;3.00;2.80;;;;;;;15.80;100.00;100937.50;5003727;28;20689;-73
2022/07/12 03:17:56;;;;;;;3.30;3.00;;;;;;;15.79;100.00;100939.28;5028936;28;20209;-73
2022/07/12 03:20:22;;;;;;;3.10;2.90;;;;;;;15.74;100.00;100945.44;5022061;28;20317;-73
2022/07/12 03:22:53;;;;;;;3.00;2.77;;;;;;;15.72;100.00;100934.22;5027034;28;20623;-73
2022/07/12 03:25:18;;;;;;;3.17;2.87;;;;;;;15.69;100.00;100925.56;5010337;28;20189;-73
2022/07/12 03:27:44;;;;;;;3.90;3.30;;;;;;;15.68;100.00;100929.03;5009784;28;20211;-74
2022/07/12 03:30:10;;;;;;;3.20;2.90;;;;;;;15.64;100.00;100932.59;5025758;28;20198;-74
2022/07/12 03:32:37;;;;;;;2.70;2.50;;;;;;;15.62;100.00;100939.59;5027551;28;20198;-75
2022/07/12 03:35:02;;;;;;;2.70;2.50;;;;;;;15.59;100.00;100938.81;5029369;28;20200;-72
2022/07/12 03:37:38;;;;;;;3.83;3.13;;;;;;;15.58;100.00;100934.47;5023778;28;20241;-75
2022/07/12 03:40:04;;;;;;;3.20;2.90;;;;;;;15.55;100.00;100925.81;5021497;28;20825;-75
2022/07/12 03:42:30;;;;;;;3.53;3.23;;;;;;;15.54;100.00;100936.28;5006334;28;20195;-73
2022/07/12 03:44:55;;;;;;;3.40;3.10;;;;;;;15.52;100.00;100938.91;5024778;28;20179;-74
2022/07/12 03:47:20;;;;;;;3.60;3.10;;;;;;;15.54;100.00;100936.28;5007176;28;20206;-72
2022/07/12 03:49:46;;;;;;;3.10;2.90;;;;;;;15.53;100.00;100937.19;5021154;28;20185;-76
2022/07/12 03:52:11;;;;;;;2.93;2.70;;;;;;;15.51;100.00;100941.56;5009921;28;20666;-74
2022/07/12 03:54:37;;;;;;;3.77;3.00;;;;;;;15.51;100.00;100946.78;5009788;28;20249;-74
2022/07/12 03:57:14;;;;;;;3.10;2.90;;;;;;;15.50;100.00;100940.69;5025008;28;20207;-76
2022/07/12 03:59:43;;;;;;;3.20;2.87;;;;;;;15.52;100.00;100946.72;5026178;28;20202;-73
2022/07/12 04:02:09;;;;;;;3.20;3.00;;;;;;;15.57;100.00;100954.50;5021605;28;20263;-75
2022/07/12 04:04:34;;;;;;;3.50;3.17;;;;;;;15.60;100.00;100956.19;5028142;28;20847;-74
2022/07/12 04:07:00;;;;;;;4.67;3.10;;;;;;;15.64;100.00;100956.09;5028202;28;20705;-72
2022/07/12 04:09:25;;;;;;;3.37;3.07;;;;;;;15.69;100.00;100956.84;5022417;28;20180;-73
2022/07/12 04:11:50;;;;;;;2.73;2.53;;;;;;;15.71;100.00;100956.81;5028835;28;20257;-74
2022/07/12 04:14:16;;;;;;;3.37;3.07;;;;;;;15.76;100.00;100956.72;5011394;28;20306;-72
2022/07/12 04:16:44;;;;;;;3.10;2.80;;;;;;;15.79;100.00;100957.53;5027272;28;20211;-73
2022/07/12 04:19:09;;;;;;;5.33;2.97;;;;;;;15.82;100.00;100960.06;5009016;28;20226;-73
2022/07/12 04:21:36;;;;;;;3.87;3.13;;;;;;;15.88;100.00;100953.94;5021882;28;20563;-72
2022/07/12 04:24:01;;;;;;;3.40;3.10;;;;;;;15.90;100.00;100959.09;5025936;28;20192;-73
2022/07/12 04:26:26;;;;;;;4.23;3.23;;;;;;;15.92;100.00;100962.53;5003970;28;20245;-74
2022/07/12 04:28:52;;;;;;;3.33;3.13;;;;;;;16.00;100.00;100968.44;5009559;28;20179;-74
2022/07/12 04:31:17;;;;;;;2.97;2.77;;;;;;;16.10;100.00;100963.91;5025811;28;20212;-73
2022/07/12 04:33:43;;;;;;;8.33;3.57;;;;;;;16.37;100.00;100970.28;5009206;28;20215;-73
2022/07/12 04:36:08;;;;;;;5.60;4.03;;;;;;;16.76;100.00;100972.88;5029125;28;20204;-74
2022/07/12 04:38:33;;;;;;;4.73;3.37;;;;;;;16.98;100.00;100971.50;4991469;28;20623;-74
2022/07/12 04:40:59;;;;;;;3.27;2.97;;;;;;;17.29;100.00;100971.63;5026717;28;21017;-72
2022/07/12 04:43:24;;;;;;;3.33;3.03;;;;;;;17.70;100.00;100971.38;5029201;28;20195;-74
2022/07/12 04:45:50;;;;;;;4.83;3.10;;;;;;;18.34;100.00;100970.44;5026087;28;20180;-72
2022/07/12 04:48:16;;;;;;;3.03;2.30;;;;;;;19.35;99.57;100972.47;5029423;28;20186;-74
2022/07/12 04:50:42;;;;;;;6.70;3.10;;;;;;;20.42;94.23;100968.56;5028967;28;20267;-73
2022/07/12 04:53:07;;;;;;;3.57;2.50;;;;;;;21.52;91.39;100961.44;5009985;28;20545;-75
2022/07/12 04:55:32;;;;;;;2.53;2.10;;;;;;;22.37;87.76;100967.25;5026373;28;20675;-75
2022/07/12 04:57:58;;;;;;;3.13;2.43;;;;;;;22.69;85.88;100970.16;5015675;28;20976;-74
2022/07/12 05:00:23;;;;;;;15.83;2.87;;;;;;;22.74;84.07;100968.16;5019121;28;20612;-74
2022/07/12 05:02:49;;;;;;;3.57;1.97;;;;;;;23.04;83.50;100972.84;5020227;28;20191;-73
2022/07/12 05:05:14;;;;;;;14.97;3.03;;;;;;;22.74;82.48;100976.06;5022342;28;20195;-74
2022/07/12 05:07:40;;;;;;;2.43;2.03;;;;;;;22.17;83.16;100976.97;5024857;28;20207;-75
2022/07/12 05:10:06;;;;;;;3.67;2.30;;;;;;;22.19;84.39;100979.53;5009043;28;20191;-75
2022/07/12 05:12:31;;;;;;;1.90;1.77;;;;;;;22.37;84.24;100981.31;5020619;28;20566;-74
2022/07/12 05:14:56;;;;;;;2.80;1.87;;;;;;;23.20;82.60;100975.56;5003076;28;20179;-75
2022/07/12 05:17:22;;;;;;;1.67;1.57;;;;;;;23.93;79.14;100982.34;5002587;28;20207;-75
2022/07/12 05:19:47;;;;;;;1.63;1.53;;;;;;;24.46;76.80;100975.06;5021429;28;20274;-75
2022/07/12 05:22:13;;;;;;;6.33;2.40;;;;;;;25.16;75.01;100975.50;5025921;28;20187;-74
2022/07/12 05:24:38;;;;;;;2.40;2.20;;;;;;;25.79;73.37;100970.84;5004693;28;20727;-73
2022/07/12 05:27:04;;;;;;;12.50;2.97;;;;;;;26.12;71.65;100975.84;5006674;28;20634;-74
2022/07/12 05:29:29;;;;;;;4.37;2.17;;;;;;;26.61;70.76;100976.28;5008937;28;20238;-74
2022/07/12 05:31:56;;;;;;;3.67;1.97;;;;;;;27.00;70.04;100971.94;5026807;28;20687;-74
2022/07/12 05:34:21;;;;;;;2.80;2.03;;;;;;;26.81;69.51;100974.97;5021983;28;20188;-74
2022/07/12 05:36:47;;;;;;;1.70;1.50;;;;;;;27.62;69.03;100981.03;5024481;28;20245;-73
2022/07/12 05:39:12;;;;;;;2.80;1.83;;;;;;;27.85;67.61;100978.56;5026256;28;20678;-73
2022/07/12 05:41:38;;;;;;;2.67;2.00;;;;;;;28.15;66.42;100980.00;5026607;28;20176;-75
2022/07/12 05:44:03;;;;;;;4.83;2.03;;;;;;;28.03;66.43;100979.03;5007065;28;20183;-76
2022/07/12 05:46:29;;;;;;;4.20;2.00;;;;;;;28.34;65.52;100984.00;5020736;28;20195;-74
2022/07/12 05:48:54;;;;;;;3.33;2.03;;;;;;;28.09;65.67;100991.03;5005306;28;20213;-73
2022/07/12 05:54:04;;;;;;;4.47;1.87;;;;;;;28.19;66.06;101001.91;5008719;28;20596;-75
2022/07/12 05:56:30;;;;;;;2.00;1.73;;;;;;;28.38;65.64;101002.28;5019885;28;20314;-74
2022/07/12 05:58:55;;;;;;;3.57;2.00;;;;;;;28.31;65.66;100998.34;5025749;28;20997;-73
2022/07/12 06:01:20;;;;;;;1.67;1.57;;;;;;;28.46;65.37;100999.06;5027038;28;20187;-73
2022/07/12 06:03:46;;;;;;;1.90;1.70;;;;;;;28.68;64.77;101002.78;5006786;28;20266;-74
2022/07/12 06:06:11;;;;;;;4.73;1.80;;;;;;;28.69;64.76;100996.47;5027954;28;20532;-74
2022/07/12 06:08:37;;;;;;;3.37;1.47;;;;;;;28.55;64.73;101022.31;5027265;28;20190;-74
2022/07/12 06:11:02;;;;;;;3.70;1.60;;;;;;;28.74;63.68;101005.00;5025727;28;20239;-74
2022/07/12 06:13:28;;;;;;;2.63;1.40;;;;;;;29.16;62.99;101009.88;5027552;28;20556;-74
2022/07/12 06:15:55;;;;;;;1.50;1.37;;;;;;;29.43;62.72;101009.59;5025172;28;20211;-74
2022/07/12 06:18:21;;;;;;;2.80;1.37;;;;;;;29.77;62.23;101006.94;5024586;28;20598;-74
2022/07/12 06:20:47;;;;;;;2.77;1.33;;;;;;;30.06;61.15;101010.97;5023919;28;20180;-74
2022/07/12 06:23:12;;;;;;;4.97;2.07;;;;;;;29.85;61.01;101008.16;5029588;28;20544;-75
2022/07/12 06:25:38;;;;;;;1.83;1.40;;;;;;;29.81;61.40;101004.88;5027857;28;20237;-74
2022/07/12 06:28:05;;;;;;;1.30;1.20;;;;;;;30.33;60.19;101005.19;5029228;28;20226;-75
2022/07/12 06:30:30;;;;;;;1.67;1.20;;;;;;;30.05;59.79;101007.44;5027715;28;20175;-74
2022/07/12 06:32:58;;;;;;;1.30;1.10;;;;;;;29.96;60.92;101005.50;5026559;28;20210;-75
2022/07/12 06:35:23;;;;;;;4.23;1.70;;;;;;;30.65;59.64;100996.38;5029270;28;20238;-75
2022/07/12 06:37:49;;;;;;;3.27;1.17;;;;;;;30.41;58.57;101005.44;5027896;28;20211;-76
2022/07/12 06:40:16;;;;;;;2.40;1.07;;;;;;;30.80;58.80;101012.09;5025576;28;20193;-74
2022/07/12 06:42:43;;;;;;;4.73;1.40;;;;;;;30.95;58.79;101010.81;5030367;28;20160;-75
2022/07/12 06:45:09;;;;;;;1.60;1.10;;;;;;;31.07;58.71;101010.78;5029814;28;20176;-74
2022/07/12 06:47:34;;;;;;;1.80;0.97;;;;;;;30.91;58.51;101009.41;5028658;28;20215;-73
2022/07/12 06:50:00;;;;;;;1.13;1.00;;;;;;;30.41;59.05;101018.78;5008034;28;20249;-74
2022/07/12 06:52:25;;;;;;;5.53;2.03;;;;;;;30.24;59.71;101024.63;5027139;28;20192;-73
2022/07/12 06:54:51;;;;;;;5.53;1.37;;;;;;;30.73;58.82;101024.28;5030497;28;20182;-74
2022/07/12 06:57:18;;;;;;;2.30;1.27;;;;;;;30.84;58.69;101027.78;5029533;28;20222;-74
2022/07/12 06:59:47;;;;;;;30.43;4.53;;;;;;;30.94;58.48;101030.50;5020596;28;20231;-73
2022/07/12 07:02:13;;;;;;;3.50;1.90;;;;;;;31.05;57.67;101034.09;5029136;28;20334;-73
2022/07/12 07:04:38;;;;;;;4.23;0.70;;;;;;;30.74;57.84;101034.00;5025103;28;20654;-75
2022/07/12 07:07:04;;;;;;;3.30;1.07;;;;;;;30.86;58.28;101043.66;5027531;28;20294;-74
2022/07/12 07:09:29;;;;;;;2.20;0.90;;;;;;;30.60;57.67;101038.66;5009965;28;20189;-74
2022/07/12 07:11:55;;;;;;;4.30;1.10;;;;;;;29.89;58.92;101033.59;5020796;28;20185;-75
2022/07/12 07:14:20;;;;;;;1.40;0.90;;;;;;;30.19;58.69;101033.03;5018887;28;20207;-74
2022/07/12 07:16:46;;;;;;;3.73;1.00;;;;;;;30.14;57.91;101037.03;5007683;28;20226;-74
2022/07/12 07:19:11;;;;;;;1.70;0.70;;;;;;;30.22;57.84;101037.25;5007634;28;20220;-73
2022/07/12 07:21:37;;;;;;;0.97;0.60;;;;;;;29.47;58.08;101035.03;5022546;28;20218;-75
2022/07/12 07:24:03;;;;;;;1.47;0.87;;;;;;;29.14;58.72;101049.97;5006449;28;20187;-74
2022/07/12 07:26:29;;;;;;;13.23;1.97;;;;;;;29.19;59.56;101042.47;5025665;28;20207;-74
2022/07/12 07:31:39;;;;;;;3.53;0.93;;;;;;;29.07;59.37;101053.22;5022787;28;20202;-75
2022/07/12 07:34:05;;;;;;;2.47;0.83;;;;;;;28.74;59.46;101055.63;5027705;28;20710;-76
2022/07/12 07:36:31;;;;;;;3.50;0.90;;;;;;;28.06;60.08;101055.97;5028368;28;20302;-73
2022/07/12 07:38:58;;;;;;;1.37;0.70;;;;;;;28.05;60.13;101051.63;5030178;28;20566;-73
2022/07/12 07:41:23;;;;;;;3.53;0.90;;;;;;;28.20;60.05;101051.50;5023293;28;20190;-75
2022/07/12 07:43:49;;;;;;;1.03;0.40;;;;;;;27.78;59.96;101046.41;5029016;28;20191;-75
2022/07/12 07:46:14;;;;;;;1.37;0.50;;;;;;;28.29;60.11;101045.50;5026763;28;20265;-74
2022/07/12 07:48:40;;;;;;;0.60;0.50;;;;;;;28.35;59.67;101046.91;5029376;28;20674;-75
2022/07/12 07:51:05;;;;;;;0.50;0.50;;;;;;;28.68;59.45;101046.25;5012045;28;20183;-75
2022/07/12 07:53:30;;;;;;;0.40;0.40;;;;;;;28.60;59.42;101033.50;5028757;28;20245;-75
2022/07/12 07:55:57;;;;;;;0.87;0.60;;;;;;;28.79;60.14;101033.97;5014433;28;20200;-75
2022/07/12 07:58:22;;;;;;;0.60;0.60;;;;;;;28.70;60.04;101038.13;5028018;28;20262;-75
2022/07/12 08:00:51;;;;;;;0.60;0.60;;;;;;;28.81;60.40;101042.69;5012512;28;20194;-72
2022/07/12 08:03:17;;;;;;;10.40;1.73;;;;;;;28.24;60.32;101037.03;5019167;28;20825;-74
2022/07/12 08:05:43;;;;;;;0.60;0.50;;;;;;;28.15;60.41;101038.53;5028820;28;20183;-74
2022/07/12 08:08:08;;;;;;;0.80;0.57;;;;;;;28.11;60.53;101037.91;5029654;28;20187;-74
2022/07/12 08:10:34;;;;;;;0.40;0.40;;;;;;;27.80;61.66;101045.38;5011805;28;20660;-73
2022/07/12 08:12:59;;;;;;;1.50;0.70;;;;;;;27.56;62.08;101050.59;5010127;28;20180;-73
2022/07/12 08:15:25;;;;;;;1.37;0.63;;;;;;;27.54;62.71;101045.34;5011902;28;20713;-74
2022/07/12 08:17:51;;;;;;;1.53;0.50;;;;;;;27.14;63.51;101052.53;5009814;28;20195;-74
2022/07/12 08:20:17;;;;;;;0.97;0.70;;;;;;;26.88;63.68;101045.34;5006681;28;20198;-73
2022/07/12 08:22:44;;;;;;;1.60;0.57;;;;;;;26.71;65.25;101041.06;5030000;28;20207;-73
2022/07/12 08:25:10;;;;;;;1.10;0.67;;;;;;;26.67;65.46;101047.56;5028744;28;20194;-73
2022/07/12 08:27:35;;;;;;;0.87;0.80;;;;;;;26.83;65.05;101058.03;5028223;28;20207;-75
2022/07/12 08:30:01;;;;;;;0.93;0.80;;;;;;;26.59;64.51;101056.03;5026964;28;20188;-74
2022/07/12 08:32:26;;;;;;;0.93;0.80;;;;;;;26.52;65.38;101054.69;5027876;28;20281;-75
2022/07/12 08:34:51;;;;;;;9.03;1.77;;;;;;;26.61;65.96;101048.81;5028442;28;20215;-75
2022/07/12 08:37:17;;;;;;;6.57;1.40;;;;;;;26.29;66.35;101058.81;5027481;28;20204;-75
2022/07/12 08:39:42;;;;;;;2.23;0.73;;;;;;;26.14;66.16;101048.22;5021590;28;20188;-74
2022/07/12 08:42:08;;;;;;;1.70;0.90;;;;;;;25.96;65.89;101058.16;5025437;28;20180;-74
2022/07/12 08:44:34;;;;;;;12.50;2.50;;;;;;;26.12;65.49;101052.78;5007339;28;20284;-75
2022/07/12 08:46:59;;;;;;;1.57;0.93;;;;;;;26.00;65.83;101049.06;5026113;28;20302;-75
2022/07/12 08:49:24;;;;;;;1.10;0.70;;;;;;;25.59;66.07;101051.59;5020285;28;20184;-74
2022/07/12 08:51:50;;;;;;;3.33;0.97;;;;;;;25.35;67.11;101055.59;5027781;28;20601;-74
2022/07/12 08:54:18;;;;;;;2.10;0.70;;;;;;;25.17;67.20;101051.38;5027123;28;20187;-74
2022/07/12 08:56:44;;;;;;;3.43;1.23;;;;;;;25.00;67.11;101053.19;5023410;28;20222;-75
2022/07/12 08:59:20;;;;;;;3.23;1.10;;;;;;;24.84;67.31;101044.44;5027229;28;20171;-74
2022/07/12 09:01:52;;;;;;;2.00;0.60;;;;;;;24.75;67.76;101045.81;5022596;28;20192;-74
2022/07/12 09:04:25;;;;;;;1.33;0.80;;;;;;;24.88;67.61;101056.56;5019113;28;20192;-74
2022/07/12 09:06:51;;;;;;;4.23;1.23;;;;;;;24.68;67.26;101057.66;5028203;28;20238;-74
2022/07/12 09:09:26;;;;;;;1.50;1.00;;;;;;;24.62;67.48;101059.69;5009679;28;20179;-74
2022/07/12 09:11:51;;;;;;;4.70;1.30;;;;;;;24.59;67.26;101054.56;5025790;28;20183;-74
2022/07/12 09:14:20;;;;;;;1.53;0.90;;;;;;;24.65;67.47;101056.88;5027625;28;20187;-74
2022/07/12 09:16:58;;;;;;;1.03;1.00;;;;;;;24.83;67.41;101048.88;5020037;28;20242;-74
2022/07/12 09:19:24;;;;;;;1.23;0.90;;;;;;;24.97;67.49;101056.00;5021262;28;20179;-74
2022/07/12 09:21:52;;;;;;;1.97;1.30;;;;;;;25.14;67.24;101047.13;5025790;28;20183;-74
2022/07/12 09:24:18;;;;;;;4.80;1.40;;;;;;;25.21;67.36;101052.91;5024552;28;20191;-74
2022/07/12 09:26:45;;;;;;;4.33;0.93;;;;;;;24.98;67.28;101059.53;5024743;28;20401;-75
2022/07/12 09:29:11;;;;;;;1.90;1.17;;;;;;;24.92;66.87;101063.41;5024638;28;20192;-75
2022/07/12 09:37:14;;;;;;;1.00;1.00;;;;;;;25.03;66.28;101049.53;5023467;28;20230;-74
2022/07/12 09:39:40;;;;;;;2.50;0.90;;;;;;;25.06;66.88;101066.09;5023112;28;21036;-76
2022/07/12 09:42:11;;;;;;;5.07;1.13;;;;;;;25.13;67.17;101056.00;5028693;28;20203;-74
2022/07/12 09:44:38;;;;;;;1.20;1.03;;;;;;;25.11;66.39;101056.06;5008734;28;20188;-76
2022/07/12 09:47:06;;;;;;;1.60;0.80;;;;;;;25.13;65.92;101056.00;5007744;28;20230;-76
2022/07/12 09:49:33;;;;;;;6.67;1.57;;;;;;;25.03;66.72;101058.31;5027315;28;20191;-75
2022/07/12 09:51:59;;;;;;;0.80;0.80;;;;;;;24.90;65.34;101052.03;5028691;28;20215;-75
2022/07/12 09:54:27;;;;;;;7.77;1.63;;;;;;;24.91;65.02;101062.53;5008596;28;20635;-74
2022/07/12 09:56:55;;;;;;;0.90;0.90;;;;;;;24.98;65.17;101044.47;5006769;28;20764;-73
2022/07/12 09:59:23;;;;;;;1.60;0.83;;;;;;;25.04;65.20;101052.09;5026677;28;20187;-75
2022/07/12 10:01:50;;;;;;;0.70;0.70;;;;;;;25.01;64.82;101046.97;5024274;28;20847;-76
2022/07/12 10:04:20;;;;;;;1.07;0.73;;;;;;;25.16;65.75;101065.56;5010356;28;20282;-75
2022/07/12 10:06:47;;;;;;;0.80;0.70;;;;;;;25.08;65.19;101055.41;5027163;28;20290;-75
2022/07/12 10:09:13;;;;;;;0.53;0.50;;;;;;;25.17;64.89;101057.53;5028114;28;20184;-76
2022/07/12 10:11:40;;;;;;;0.57;0.57;;;;;;;25.32;64.04;101058.41;5006557;28;20195;-76
2022/07/12 10:14:06;;;;;;;0.87;0.60;;;;;;;25.41;64.71;101049.06;5009555;28;20279;-76
2022/07/12 10:16:35;;;;;;;1.53;0.70;;;;;;;25.49;65.11;101067.19;5008601;28;20281;-75
2022/07/12 10:19:23;;;;;;;0.50;0.50;;;;;;;25.40;65.36;101064.13;5025158;28;20195;-75
2022/07/12 10:21:50;;;;;;;0.50;0.50;;;;;;;25.29;64.77;101050.63;5000514;28;20185;-74
2022/07/12 10:24:30;;;;;;;1.53;0.67;;;;;;;25.37;64.95;101047.53;5010456;28;20695;-76
2022/07/12 10:27:14;;;;;;;2.63;0.73;;;;;;;25.43;65.53;101052.53;5008436;28;20898;-76
2022/07/12 10:29:41;;;;;;;0.70;0.60;;;;;;;25.50;65.41;101040.59;4996968;28;20256;-76
2022/07/12 10:32:26;;;;;;;0.60;0.60;;;;;;;25.46;65.66;101043.53;5010271;28;20214;-76
2022/07/12 10:35:02;;;;;;;1.03;0.60;;;;;;;25.31;65.42;101042.63;5002783;28;20245;-75
2022/07/12 10:37:29;;;;;;;25.07;2.83;;;;;;;25.39;65.70;101024.47;5027475;28;20237;-75
2022/07/12 10:40:17;;;;;;;3.77;1.30;;;;;;;25.64;65.37;101041.59;5026892;28;20194;-75
2022/07/12 10:43:00;;;;;;;2.03;0.80;;;;;;;25.68;65.30;101040.44;5027570;28;20190;-77
2022/07/12 10:45:33;;;;;;;1.70;0.63;;;;;;;25.59;65.10;101041.84;5020218;28;20194;-76
2022/07/12 10:48:04;;;;;;;11.57;2.37;;;;;;;25.62;65.28;101038.16;5007000;28;20207;-75
2022/07/12 10:51:02;;;;;;;1.37;0.70;;;;;;;25.57;64.83;101054.31;5027097;28;20643;-77
2022/07/12 10:53:45;;;;;;;4.13;0.83;;;;;;;25.68;64.94;101045.72;5019693;28;20672;-75
2022/07/12 10:56:27;;;;;;;0.70;0.60;;;;;;;25.53;65.38;101043.06;5009283;28;20215;-76
2022/07/12 10:58:59;;;;;;;0.83;0.50;;;;;;;25.60;65.77;101040.06;5008822;28;20190;-75
2022/07/12 11:01:27;;;;;;;1.03;0.70;;;;;;;25.61;65.41;101039.94;5022296;28;20763;-75
2022/07/12 11:04:12;;;;;;;4.07;0.57;;;;;;;25.56;65.71;101036.75;5022865;28;20194;-75
2022/07/12 11:06:41;;;;;;;2.10;0.57;;;;;;;25.53;65.60;101037.75;5009847;28;20644;-75
2022/07/12 11:09:12;;;;;;;0.97;0.80;;;;;;;25.55;65.75;101029.75;5031338;28;20193;-74
2022/07/12 11:11:43;;;;;;;0.70;0.70;;;;;;;25.76;65.14;101024.94;5012863;28;20290;-75
2022/07/12 11:14:09;;;;;;;2.27;0.70;;;;;;;25.89;65.25;101024.16;5012898;28;20193;-75
2022/07/12 11:16:42;;;;;;;5.20;1.23;;;;;;;25.95;65.79;101032.59;5030706;28;20633;-74
2022/07/12 11:19:07;;;;;;;5.73;1.27;;;;;;;25.86;65.13;101031.34;5013502;28;20198;-76
2022/07/12 11:21:33;;;;;;;0.87;0.60;;;;;;;25.98;64.96;101029.75;5029604;28;20714;-74
2022/07/12 11:23:58;;;;;;;6.33;1.20;;;;;;;26.04;65.09;101041.78;5012187;28;20258;-75
2022/07/12 11:26:25;;;;;;;1.03;0.80;;;;;;;26.00;65.64;101033.16;5039533;28;20285;-76
2022/07/12 11:28:51;;;;;;;0.70;0.60;;;;;;;26.20;65.18;101024.94;5042097;28;20211;-76
2022/07/12 11:31:17;;;;;;;1.30;0.80;;;;;;;26.25;64.51;101021.03;5045463;28;20217;-75